sensor_id;sensor_type;location;lat;lon;timestamp;P1;durP1;ratioP1;P2;durP2;ratioP2
51190;SDS011;37253;48.736;9.294;2023-05-07T00:00:51;2.97;;;1.50;;
51190;SDS011;37253;48.736;9.294;2023-05-07T00:02:51;2.15;;;1.40;;
51190;SDS011;37253;48.736;9.294;2023-05-07T00:04:52;2.78;;;1.55;;
51190;SDS011;37253;48.736;9.294;2023-05-07T00:06:52;2.67;;;1.67;;
51190;SDS011;37253;48.736;9.294;2023-05-07T00:08:52;1.95;;;1.70;;
51190;SDS011;37253;48.736;9.294;2023-05-07T00:10:53;4.15;;;1.50;;
51190;SDS011;37253;48.736;9.294;2023-05-07T00:12:53;4.93;;;1.60;;
51190;SDS011;37253;48.736;9.294;2023-05-07T00:14:54;3.65;;;1.48;;
51190;SDS011;37253;48.736;9.294;2023-05-07T00:16:55;3.53;;;1.63;;
51190;SDS011;37253;48.736;9.294;2023-05-07T00:18:55;1.80;;;1.35;;
51190;SDS011;37253;48.736;9.294;2023-05-07T00:20:56;2.45;;;1.40;;
51190;SDS011;37253;48.736;9.294;2023-05-07T00:22:56;1.95;;;1.30;;
51190;SDS011;37253;48.736;9.294;2023-05-07T00:24:56;1.80;;;1.42;;
51190;SDS011;37253;48.736;9.294;2023-05-07T00:26:57;2.15;;;1.40;;
51190;SDS011;37253;48.736;9.294;2023-05-07T00:28:58;3.42;;;1.25;;
51190;SDS011;37253;48.736;9.294;2023-05-07T00:30:58;1.65;;;1.48;;
51190;SDS011;37253;48.736;9.294;2023-05-07T00:32:58;2.20;;;1.30;;
51190;SDS011;37253;48.736;9.294;2023-05-07T00:34:58;1.52;;;1.30;;
51190;SDS011;37253;48.736;9.294;2023-05-07T00:36:59;2.78;;;1.50;;
51190;SDS011;37253;48.736;9.294;2023-05-07T00:38:59;2.28;;;1.45;;
51190;SDS011;37253;48.736;9.294;2023-05-07T00:41:02;1.35;;;1.15;;
51190;SDS011;37253;48.736;9.294;2023-05-07T00:43:02;2.25;;;1.23;;
51190;SDS011;37253;48.736;9.294;2023-05-07T00:45:02;2.58;;;1.35;;
51190;SDS011;37253;48.736;9.294;2023-05-07T00:47:03;2.67;;;1.40;;
51190;SDS011;37253;48.736;9.294;2023-05-07T00:49:04;1.98;;;1.40;;
51190;SDS011;37253;48.736;9.294;2023-05-07T00:51:05;1.73;;;1.20;;
51190;SDS011;37253;48.736;9.294;2023-05-07T00:53:06;2.20;;;1.30;;
51190;SDS011;37253;48.736;9.294;2023-05-07T00:55:06;1.65;;;1.40;;
51190;SDS011;37253;48.736;9.294;2023-05-07T00:57:07;3.78;;;1.20;;
51190;SDS011;37253;48.736;9.294;2023-05-07T00:59:09;1.88;;;1.30;;
51190;SDS011;37253;48.736;9.294;2023-05-07T01:01:10;2.22;;;1.45;;
51190;SDS011;37253;48.736;9.294;2023-05-07T01:03:10;2.72;;;1.50;;
51190;SDS011;37253;48.736;9.294;2023-05-07T01:05:11;2.30;;;1.42;;
51190;SDS011;37253;48.736;9.294;2023-05-07T01:07:13;1.90;;;1.33;;
51190;SDS011;37253;48.736;9.294;2023-05-07T01:09:13;2.88;;;1.42;;
51190;SDS011;37253;48.736;9.294;2023-05-07T01:11:14;2.78;;;1.42;;
51190;SDS011;37253;48.736;9.294;2023-05-07T01:13:14;1.85;;;1.40;;
51190;SDS011;37253;48.736;9.294;2023-05-07T01:15:15;1.52;;;1.30;;
51190;SDS011;37253;48.736;9.294;2023-05-07T01:17:16;1.40;;;1.30;;
51190;SDS011;37253;48.736;9.294;2023-05-07T01:19:17;1.73;;;1.45;;
51190;SDS011;37253;48.736;9.294;2023-05-07T01:21:18;1.85;;;1.10;;
51190;SDS011;37253;48.736;9.294;2023-05-07T01:23:26;1.20;;;1.10;;
51190;SDS011;37253;48.736;9.294;2023-05-07T01:25:27;2.03;;;1.40;;
51190;SDS011;37253;48.736;9.294;2023-05-07T01:27:28;2.13;;;1.17;;
51190;SDS011;37253;48.736;9.294;2023-05-07T01:29:29;3.03;;;1.40;;
51190;SDS011;37253;48.736;9.294;2023-05-07T01:31:29;2.97;;;1.20;;
51190;SDS011;37253;48.736;9.294;2023-05-07T01:33:31;1.45;;;1.30;;
51190;SDS011;37253;48.736;9.294;2023-05-07T01:35:33;3.43;;;1.20;;
51190;SDS011;37253;48.736;9.294;2023-05-07T01:37:36;2.95;;;1.30;;
51190;SDS011;37253;48.736;9.294;2023-05-07T01:39:37;1.20;;;1.08;;
51190;SDS011;37253;48.736;9.294;2023-05-07T01:41:39;2.55;;;1.30;;
51190;SDS011;37253;48.736;9.294;2023-05-07T01:43:40;1.50;;;0.93;;
51190;SDS011;37253;48.736;9.294;2023-05-07T01:45:41;2.25;;;1.20;;
51190;SDS011;37253;48.736;9.294;2023-05-07T01:47:41;2.25;;;1.27;;
51190;SDS011;37253;48.736;9.294;2023-05-07T01:49:42;1.52;;;1.10;;
51190;SDS011;37253;48.736;9.294;2023-05-07T01:51:43;2.40;;;1.30;;
51190;SDS011;37253;48.736;9.294;2023-05-07T01:53:43;1.50;;;1.13;;
51190;SDS011;37253;48.736;9.294;2023-05-07T01:55:45;2.03;;;1.30;;
51190;SDS011;37253;48.736;9.294;2023-05-07T01:57:45;1.35;;;1.25;;
51190;SDS011;37253;48.736;9.294;2023-05-07T01:59:46;2.97;;;1.20;;
51190;SDS011;37253;48.736;9.294;2023-05-07T02:01:46;1.10;;;1.00;;
51190;SDS011;37253;48.736;9.294;2023-05-07T02:03:47;2.65;;;1.30;;
51190;SDS011;37253;48.736;9.294;2023-05-07T02:05:47;1.60;;;1.10;;
51190;SDS011;37253;48.736;9.294;2023-05-07T02:07:48;2.33;;;1.23;;
51190;SDS011;37253;48.736;9.294;2023-05-07T02:09:48;1.83;;;1.20;;
51190;SDS011;37253;48.736;9.294;2023-05-07T02:11:48;1.20;;;1.10;;
51190;SDS011;37253;48.736;9.294;2023-05-07T02:13:49;1.90;;;1.17;;
51190;SDS011;37253;48.736;9.294;2023-05-07T02:15:49;2.33;;;1.25;;
51190;SDS011;37253;48.736;9.294;2023-05-07T02:18:03;1.85;;;1.50;;
51190;SDS011;37253;48.736;9.294;2023-05-07T02:20:04;1.08;;;0.98;;
51190;SDS011;37253;48.736;9.294;2023-05-07T02:22:05;1.73;;;1.10;;
51190;SDS011;37253;48.736;9.294;2023-05-07T02:24:05;1.20;;;1.10;;
51190;SDS011;37253;48.736;9.294;2023-05-07T02:26:05;1.40;;;1.17;;
51190;SDS011;37253;48.736;9.294;2023-05-07T02:28:06;1.88;;;1.00;;
51190;SDS011;37253;48.736;9.294;2023-05-07T02:30:06;1.55;;;1.13;;
51190;SDS011;37253;48.736;9.294;2023-05-07T02:32:07;2.50;;;1.20;;
51190;SDS011;37253;48.736;9.294;2023-05-07T02:34:07;1.27;;;1.17;;
51190;SDS011;37253;48.736;9.294;2023-05-07T02:36:11;1.33;;;1.05;;
51190;SDS011;37253;48.736;9.294;2023-05-07T02:38:12;1.50;;;1.10;;
51190;SDS011;37253;48.736;9.294;2023-05-07T02:40:12;1.08;;;0.98;;
51190;SDS011;37253;48.736;9.294;2023-05-07T02:42:12;1.05;;;1.00;;
51190;SDS011;37253;48.736;9.294;2023-05-07T02:44:13;1.55;;;1.27;;
51190;SDS011;37253;48.736;9.294;2023-05-07T02:46:13;1.55;;;1.10;;
51190;SDS011;37253;48.736;9.294;2023-05-07T02:48:13;1.65;;;1.10;;
51190;SDS011;37253;48.736;9.294;2023-05-07T02:50:14;1.60;;;1.10;;
51190;SDS011;37253;48.736;9.294;2023-05-07T02:52:14;1.95;;;1.13;;
51190;SDS011;37253;48.736;9.294;2023-05-07T02:54:15;1.25;;;1.08;;
51190;SDS011;37253;48.736;9.294;2023-05-07T02:56:15;2.45;;;1.20;;
51190;SDS011;37253;48.736;9.294;2023-05-07T02:58:15;2.08;;;1.10;;
51190;SDS011;37253;48.736;9.294;2023-05-07T03:00:16;1.40;;;1.30;;
51190;SDS011;37253;48.736;9.294;2023-05-07T03:02:18;1.50;;;1.00;;
51190;SDS011;37253;48.736;9.294;2023-05-07T03:04:18;1.00;;;0.90;;
51190;SDS011;37253;48.736;9.294;2023-05-07T03:06:18;1.10;;;1.00;;
51190;SDS011;37253;48.736;9.294;2023-05-07T03:08:19;1.10;;;0.90;;
51190;SDS011;37253;48.736;9.294;2023-05-07T03:10:19;1.42;;;1.15;;
51190;SDS011;37253;48.736;9.294;2023-05-07T03:12:19;1.30;;;1.10;;
51190;SDS011;37253;48.736;9.294;2023-05-07T03:14:20;1.17;;;1.00;;
51190;SDS011;37253;48.736;9.294;2023-05-07T03:16:20;2.08;;;0.93;;
51190;SDS011;37253;48.736;9.294;2023-05-07T03:18:21;1.48;;;1.00;;
51190;SDS011;37253;48.736;9.294;2023-05-07T03:20:21;1.00;;;0.88;;
51190;SDS011;37253;48.736;9.294;2023-05-07T03:22:21;1.45;;;1.08;;
51190;SDS011;37253;48.736;9.294;2023-05-07T03:24:22;1.85;;;1.10;;
51190;SDS011;37253;48.736;9.294;2023-05-07T03:26:22;1.83;;;1.00;;
51190;SDS011;37253;48.736;9.294;2023-05-07T03:28:22;4.10;;;1.02;;
51190;SDS011;37253;48.736;9.294;2023-05-07T03:30:23;1.10;;;1.00;;
51190;SDS011;37253;48.736;9.294;2023-05-07T03:32:23;1.27;;;0.93;;
51190;SDS011;37253;48.736;9.294;2023-05-07T03:34:23;1.80;;;1.10;;
51190;SDS011;37253;48.736;9.294;2023-05-07T03:36:24;0.82;;;0.82;;
51190;SDS011;37253;48.736;9.294;2023-05-07T03:38:26;1.00;;;0.90;;
51190;SDS011;37253;48.736;9.294;2023-05-07T03:40:26;1.23;;;1.10;;
51190;SDS011;37253;48.736;9.294;2023-05-07T03:42:27;1.23;;;1.00;;
51190;SDS011;37253;48.736;9.294;2023-05-07T03:44:28;2.20;;;1.00;;
51190;SDS011;37253;48.736;9.294;2023-05-07T03:46:28;2.35;;;1.00;;
51190;SDS011;37253;48.736;9.294;2023-05-07T03:48:29;1.20;;;1.10;;
51190;SDS011;37253;48.736;9.294;2023-05-07T03:50:29;2.08;;;1.10;;
51190;SDS011;37253;48.736;9.294;2023-05-07T03:52:29;1.70;;;1.20;;
51190;SDS011;37253;48.736;9.294;2023-05-07T03:54:30;1.15;;;1.02;;
51190;SDS011;37253;48.736;9.294;2023-05-07T03:56:30;2.05;;;1.00;;
51190;SDS011;37253;48.736;9.294;2023-05-07T03:58:31;1.63;;;0.98;;
51190;SDS011;37253;48.736;9.294;2023-05-07T04:00:31;1.42;;;1.00;;
51190;SDS011;37253;48.736;9.294;2023-05-07T04:02:34;1.63;;;0.90;;
51190;SDS011;37253;48.736;9.294;2023-05-07T04:04:34;1.58;;;0.90;;
51190;SDS011;37253;48.736;9.294;2023-05-07T04:06:34;1.35;;;1.00;;
51190;SDS011;37253;48.736;9.294;2023-05-07T04:08:34;2.03;;;1.10;;
51190;SDS011;37253;48.736;9.294;2023-05-07T04:10:35;1.40;;;1.10;;
51190;SDS011;37253;48.736;9.294;2023-05-07T04:12:35;1.20;;;1.00;;
51190;SDS011;37253;48.736;9.294;2023-05-07T04:14:35;1.98;;;1.00;;
51190;SDS011;37253;48.736;9.294;2023-05-07T04:16:36;1.17;;;1.05;;
51190;SDS011;37253;48.736;9.294;2023-05-07T04:18:36;1.55;;;1.10;;
51190;SDS011;37253;48.736;9.294;2023-05-07T04:20:36;2.00;;;1.08;;
51190;SDS011;37253;48.736;9.294;2023-05-07T04:22:37;1.85;;;1.08;;
51190;SDS011;37253;48.736;9.294;2023-05-07T04:24:37;1.10;;;1.00;;
51190;SDS011;37253;48.736;9.294;2023-05-07T04:26:37;1.20;;;0.98;;
51190;SDS011;37253;48.736;9.294;2023-05-07T04:28:38;1.60;;;1.13;;
51190;SDS011;37253;48.736;9.294;2023-05-07T04:30:39;2.15;;;1.20;;
51190;SDS011;37253;48.736;9.294;2023-05-07T04:32:39;1.52;;;1.00;;
51190;SDS011;37253;48.736;9.294;2023-05-07T04:34:39;0.98;;;0.88;;
51190;SDS011;37253;48.736;9.294;2023-05-07T04:36:40;1.40;;;0.90;;
51190;SDS011;37253;48.736;9.294;2023-05-07T04:38:42;1.80;;;1.20;;
51190;SDS011;37253;48.736;9.294;2023-05-07T04:40:42;2.50;;;1.00;;
51190;SDS011;37253;48.736;9.294;2023-05-07T04:42:43;1.17;;;0.90;;
51190;SDS011;37253;48.736;9.294;2023-05-07T04:44:43;0.93;;;0.80;;
51190;SDS011;37253;48.736;9.294;2023-05-07T04:46:45;1.55;;;0.90;;
51190;SDS011;37253;48.736;9.294;2023-05-07T04:48:45;1.83;;;1.00;;
51190;SDS011;37253;48.736;9.294;2023-05-07T04:50:48;1.20;;;1.02;;
51190;SDS011;37253;48.736;9.294;2023-05-07T04:52:49;1.88;;;1.00;;
51190;SDS011;37253;48.736;9.294;2023-05-07T04:54:50;1.85;;;1.15;;
51190;SDS011;37253;48.736;9.294;2023-05-07T04:56:50;1.15;;;1.00;;
51190;SDS011;37253;48.736;9.294;2023-05-07T04:58:50;1.00;;;0.90;;
51190;SDS011;37253;48.736;9.294;2023-05-07T05:00:51;1.20;;;0.85;;
51190;SDS011;37253;48.736;9.294;2023-05-07T05:02:51;1.25;;;0.98;;
51190;SDS011;37253;48.736;9.294;2023-05-07T05:04:52;1.65;;;1.00;;
51190;SDS011;37253;48.736;9.294;2023-05-07T05:06:52;1.10;;;1.00;;
51190;SDS011;37253;48.736;9.294;2023-05-07T05:08:52;1.75;;;0.98;;
51190;SDS011;37253;48.736;9.294;2023-05-07T05:10:53;1.02;;;0.90;;
51190;SDS011;37253;48.736;9.294;2023-05-07T05:12:53;3.05;;;1.02;;
51190;SDS011;37253;48.736;9.294;2023-05-07T05:14:53;0.90;;;0.90;;
51190;SDS011;37253;48.736;9.294;2023-05-07T05:16:54;1.05;;;0.95;;
51190;SDS011;37253;48.736;9.294;2023-05-07T05:18:54;1.05;;;0.93;;
51190;SDS011;37253;48.736;9.294;2023-05-07T05:20:55;1.30;;;1.10;;
51190;SDS011;37253;48.736;9.294;2023-05-07T05:22:55;0.98;;;0.80;;
51190;SDS011;37253;48.736;9.294;2023-05-07T05:24:55;1.10;;;1.00;;
51190;SDS011;37253;48.736;9.294;2023-05-07T05:26:56;1.10;;;1.00;;
51190;SDS011;37253;48.736;9.294;2023-05-07T05:28:56;1.58;;;1.05;;
51190;SDS011;37253;48.736;9.294;2023-05-07T05:30:56;1.67;;;0.93;;
51190;SDS011;37253;48.736;9.294;2023-05-07T05:32:56;1.48;;;0.98;;
51190;SDS011;37253;48.736;9.294;2023-05-07T05:34:57;1.40;;;1.00;;
51190;SDS011;37253;48.736;9.294;2023-05-07T05:36:58;0.80;;;0.80;;
51190;SDS011;37253;48.736;9.294;2023-05-07T05:38:58;1.55;;;0.90;;
51190;SDS011;37253;48.736;9.294;2023-05-07T05:40:59;2.33;;;0.95;;
51190;SDS011;37253;48.736;9.294;2023-05-07T05:42:59;1.50;;;0.80;;
51190;SDS011;37253;48.736;9.294;2023-05-07T05:45:00;1.08;;;0.80;;
51190;SDS011;37253;48.736;9.294;2023-05-07T05:47:00;1.13;;;0.85;;
51190;SDS011;37253;48.736;9.294;2023-05-07T05:49:00;1.45;;;1.02;;
51190;SDS011;37253;48.736;9.294;2023-05-07T05:51:01;2.55;;;1.00;;
51190;SDS011;37253;48.736;9.294;2023-05-07T05:53:01;0.93;;;0.90;;
51190;SDS011;37253;48.736;9.294;2023-05-07T05:55:01;0.85;;;0.85;;
51190;SDS011;37253;48.736;9.294;2023-05-07T05:57:02;1.63;;;1.05;;
51190;SDS011;37253;48.736;9.294;2023-05-07T05:59:04;1.17;;;0.88;;
51190;SDS011;37253;48.736;9.294;2023-05-07T06:01:04;1.05;;;0.93;;
51190;SDS011;37253;48.736;9.294;2023-05-07T06:03:05;1.00;;;0.90;;
51190;SDS011;37253;48.736;9.294;2023-05-07T06:05:05;0.98;;;0.82;;
51190;SDS011;37253;48.736;9.294;2023-05-07T06:07:06;1.75;;;0.80;;
51190;SDS011;37253;48.736;9.294;2023-05-07T06:09:06;0.85;;;0.85;;
51190;SDS011;37253;48.736;9.294;2023-05-07T06:11:06;1.02;;;0.90;;
51190;SDS011;37253;48.736;9.294;2023-05-07T06:13:07;0.82;;;0.82;;
51190;SDS011;37253;48.736;9.294;2023-05-07T06:15:07;0.90;;;0.80;;
51190;SDS011;37253;48.736;9.294;2023-05-07T06:17:08;2.03;;;0.98;;
51190;SDS011;37253;48.736;9.294;2023-05-07T06:19:08;1.10;;;0.80;;
51190;SDS011;37253;48.736;9.294;2023-05-07T06:21:09;2.65;;;1.20;;
51190;SDS011;37253;48.736;9.294;2023-05-07T06:23:09;2.33;;;1.00;;
51190;SDS011;37253;48.736;9.294;2023-05-07T06:25:10;1.58;;;0.88;;
51190;SDS011;37253;48.736;9.294;2023-05-07T06:27:10;1.42;;;1.00;;
51190;SDS011;37253;48.736;9.294;2023-05-07T06:29:11;1.85;;;1.00;;
51190;SDS011;37253;48.736;9.294;2023-05-07T06:31:15;6.47;;;1.20;;
51190;SDS011;37253;48.736;9.294;2023-05-07T06:33:17;6.38;;;1.38;;
51190;SDS011;37253;48.736;9.294;2023-05-07T06:35:17;4.20;;;1.00;;
51190;SDS011;37253;48.736;9.294;2023-05-07T06:37:18;5.95;;;1.17;;
51190;SDS011;37253;48.736;9.294;2023-05-07T06:39:18;7.32;;;1.17;;
51190;SDS011;37253;48.736;9.294;2023-05-07T06:41:18;2.50;;;0.98;;
51190;SDS011;37253;48.736;9.294;2023-05-07T06:43:19;7.07;;;1.65;;
51190;SDS011;37253;48.736;9.294;2023-05-07T06:45:19;4.93;;;1.20;;
51190;SDS011;37253;48.736;9.294;2023-05-07T06:47:20;5.22;;;1.10;;
51190;SDS011;37253;48.736;9.294;2023-05-07T06:49:20;7.82;;;1.20;;
51190;SDS011;37253;48.736;9.294;2023-05-07T06:51:20;7.57;;;1.27;;
51190;SDS011;37253;48.736;9.294;2023-05-07T06:53:21;5.03;;;1.42;;
51190;SDS011;37253;48.736;9.294;2023-05-07T06:55:21;5.43;;;1.27;;
51190;SDS011;37253;48.736;9.294;2023-05-07T06:57:21;5.28;;;1.38;;
51190;SDS011;37253;48.736;9.294;2023-05-07T06:59:22;3.50;;;1.25;;
51190;SDS011;37253;48.736;9.294;2023-05-07T07:01:22;4.38;;;1.20;;
51190;SDS011;37253;48.736;9.294;2023-05-07T07:03:22;7.05;;;1.10;;
51190;SDS011;37253;48.736;9.294;2023-05-07T07:05:23;7.82;;;1.10;;
51190;SDS011;37253;48.736;9.294;2023-05-07T07:07:23;4.07;;;1.20;;
51190;SDS011;37253;48.736;9.294;2023-05-07T07:09:23;8.38;;;1.20;;
51190;SDS011;37253;48.736;9.294;2023-05-07T07:11:24;4.30;;;0.90;;
51190;SDS011;37253;48.736;9.294;2023-05-07T07:13:24;4.80;;;1.25;;
51190;SDS011;37253;48.736;9.294;2023-05-07T07:15:25;5.60;;;1.23;;
51190;SDS011;37253;48.736;9.294;2023-05-07T07:17:26;2.78;;;1.10;;
51190;SDS011;37253;48.736;9.294;2023-05-07T07:19:26;5.03;;;1.00;;
51190;SDS011;37253;48.736;9.294;2023-05-07T07:21:26;8.40;;;1.50;;
51190;SDS011;37253;48.736;9.294;2023-05-07T07:23:27;2.50;;;1.10;;
51190;SDS011;37253;48.736;9.294;2023-05-07T07:25:27;4.22;;;1.35;;
51190;SDS011;37253;48.736;9.294;2023-05-07T07:27:27;3.72;;;1.23;;
51190;SDS011;37253;48.736;9.294;2023-05-07T07:29:27;4.35;;;1.00;;
51190;SDS011;37253;48.736;9.294;2023-05-07T07:31:28;4.65;;;1.13;;
51190;SDS011;37253;48.736;9.294;2023-05-07T07:33:28;6.55;;;1.38;;
51190;SDS011;37253;48.736;9.294;2023-05-07T07:35:29;2.85;;;1.35;;
51190;SDS011;37253;48.736;9.294;2023-05-07T07:37:30;5.32;;;1.30;;
51190;SDS011;37253;48.736;9.294;2023-05-07T07:39:30;2.13;;;0.80;;
51190;SDS011;37253;48.736;9.294;2023-05-07T07:41:31;4.57;;;1.10;;
51190;SDS011;37253;48.736;9.294;2023-05-07T07:43:31;1.55;;;0.95;;
51190;SDS011;37253;48.736;9.294;2023-05-07T07:45:31;2.75;;;1.05;;
51190;SDS011;37253;48.736;9.294;2023-05-07T07:47:32;2.30;;;0.88;;
51190;SDS011;37253;48.736;9.294;2023-05-07T07:49:32;1.85;;;0.90;;
51190;SDS011;37253;48.736;9.294;2023-05-07T07:51:32;2.85;;;0.90;;
51190;SDS011;37253;48.736;9.294;2023-05-07T07:53:33;4.68;;;1.10;;
51190;SDS011;37253;48.736;9.294;2023-05-07T07:55:37;4.57;;;1.08;;
51190;SDS011;37253;48.736;9.294;2023-05-07T07:57:38;5.38;;;1.00;;
51190;SDS011;37253;48.736;9.294;2023-05-07T07:59:38;3.50;;;1.05;;
51190;SDS011;37253;48.736;9.294;2023-05-07T08:01:39;4.85;;;0.98;;
51190;SDS011;37253;48.736;9.294;2023-05-07T08:03:39;4.00;;;0.93;;
51190;SDS011;37253;48.736;9.294;2023-05-07T08:05:40;4.10;;;1.60;;
51190;SDS011;37253;48.736;9.294;2023-05-07T08:07:40;1.65;;;1.00;;
51190;SDS011;37253;48.736;9.294;2023-05-07T08:09:41;1.83;;;0.98;;
51190;SDS011;37253;48.736;9.294;2023-05-07T08:11:41;2.28;;;1.05;;
51190;SDS011;37253;48.736;9.294;2023-05-07T08:13:41;1.98;;;0.90;;
51190;SDS011;37253;48.736;9.294;2023-05-07T08:15:42;4.10;;;1.20;;
51190;SDS011;37253;48.736;9.294;2023-05-07T08:17:42;3.35;;;1.20;;
51190;SDS011;37253;48.736;9.294;2023-05-07T08:19:42;1.52;;;0.90;;
51190;SDS011;37253;48.736;9.294;2023-05-07T08:21:43;2.60;;;0.98;;
51190;SDS011;37253;48.736;9.294;2023-05-07T08:23:43;2.42;;;1.08;;
51190;SDS011;37253;48.736;9.294;2023-05-07T08:25:44;3.08;;;1.00;;
51190;SDS011;37253;48.736;9.294;2023-05-07T08:27:44;2.10;;;0.88;;
51190;SDS011;37253;48.736;9.294;2023-05-07T08:29:44;2.92;;;1.08;;
51190;SDS011;37253;48.736;9.294;2023-05-07T08:31:47;3.97;;;1.08;;
51190;SDS011;37253;48.736;9.294;2023-05-07T08:33:47;5.60;;;1.20;;
51190;SDS011;37253;48.736;9.294;2023-05-07T08:35:48;2.83;;;1.00;;
51190;SDS011;37253;48.736;9.294;2023-05-07T08:37:48;3.60;;;1.20;;
51190;SDS011;37253;48.736;9.294;2023-05-07T08:39:48;7.20;;;1.38;;
51190;SDS011;37253;48.736;9.294;2023-05-07T08:41:48;2.53;;;1.15;;
51190;SDS011;37253;48.736;9.294;2023-05-07T08:43:57;3.58;;;0.95;;
51190;SDS011;37253;48.736;9.294;2023-05-07T08:45:58;3.08;;;1.10;;
51190;SDS011;37253;48.736;9.294;2023-05-07T08:47:59;7.10;;;1.42;;
51190;SDS011;37253;48.736;9.294;2023-05-07T08:50:02;8.38;;;1.45;;
51190;SDS011;37253;48.736;9.294;2023-05-07T08:52:03;6.45;;;0.98;;
51190;SDS011;37253;48.736;9.294;2023-05-07T08:54:03;6.63;;;1.13;;
51190;SDS011;37253;48.736;9.294;2023-05-07T08:56:05;5.55;;;1.13;;
51190;SDS011;37253;48.736;9.294;2023-05-07T08:58:05;3.45;;;1.20;;
51190;SDS011;37253;48.736;9.294;2023-05-07T09:00:07;5.28;;;1.00;;
51190;SDS011;37253;48.736;9.294;2023-05-07T09:02:07;2.67;;;1.15;;
51190;SDS011;37253;48.736;9.294;2023-05-07T09:04:10;5.53;;;1.35;;
51190;SDS011;37253;48.736;9.294;2023-05-07T09:06:10;7.82;;;1.38;;
51190;SDS011;37253;48.736;9.294;2023-05-07T09:08:14;8.02;;;1.50;;
51190;SDS011;37253;48.736;9.294;2023-05-07T09:10:15;6.55;;;1.23;;
51190;SDS011;37253;48.736;9.294;2023-05-07T09:12:15;13.57;;;1.50;;
51190;SDS011;37253;48.736;9.294;2023-05-07T09:14:18;10.33;;;1.13;;
51190;SDS011;37253;48.736;9.294;2023-05-07T09:16:21;16.77;;;1.60;;
51190;SDS011;37253;48.736;9.294;2023-05-07T09:18:25;18.60;;;1.60;;
51190;SDS011;37253;48.736;9.294;2023-05-07T09:20:25;22.05;;;1.90;;
51190;SDS011;37253;48.736;9.294;2023-05-07T09:22:25;22.10;;;1.65;;
51190;SDS011;37253;48.736;9.294;2023-05-07T09:24:26;13.43;;;2.35;;
51190;SDS011;37253;48.736;9.294;2023-05-07T09:26:28;21.88;;;2.00;;
51190;SDS011;37253;48.736;9.294;2023-05-07T09:28:28;24.77;;;2.05;;
51190;SDS011;37253;48.736;9.294;2023-05-07T09:30:32;19.05;;;2.03;;
51190;SDS011;37253;48.736;9.294;2023-05-07T09:32:36;23.08;;;2.17;;
51190;SDS011;37253;48.736;9.294;2023-05-07T09:34:40;21.25;;;2.33;;
51190;SDS011;37253;48.736;9.294;2023-05-07T09:36:41;25.23;;;2.15;;
51190;SDS011;37253;48.736;9.294;2023-05-07T09:38:41;26.58;;;2.00;;
51190;SDS011;37253;48.736;9.294;2023-05-07T09:40:41;27.90;;;2.60;;
51190;SDS011;37253;48.736;9.294;2023-05-07T09:42:42;20.58;;;2.30;;
51190;SDS011;37253;48.736;9.294;2023-05-07T09:44:45;29.00;;;2.75;;
51190;SDS011;37253;48.736;9.294;2023-05-07T09:46:47;25.88;;;2.55;;
51190;SDS011;37253;48.736;9.294;2023-05-07T09:48:53;28.75;;;2.65;;
51190;SDS011;37253;48.736;9.294;2023-05-07T09:50:57;33.70;;;2.58;;
51190;SDS011;37253;48.736;9.294;2023-05-07T09:53:00;25.35;;;2.65;;
51190;SDS011;37253;48.736;9.294;2023-05-07T09:55:02;24.42;;;3.20;;
51190;SDS011;37253;48.736;9.294;2023-05-07T09:57:04;24.65;;;2.63;;
51190;SDS011;37253;48.736;9.294;2023-05-07T09:59:05;29.38;;;2.88;;
51190;SDS011;37253;48.736;9.294;2023-05-07T10:01:06;21.15;;;2.45;;
51190;SDS011;37253;48.736;9.294;2023-05-07T10:03:06;19.05;;;2.47;;
51190;SDS011;37253;48.736;9.294;2023-05-07T10:05:08;15.73;;;2.05;;
51190;SDS011;37253;48.736;9.294;2023-05-07T10:07:09;21.13;;;1.92;;
51190;SDS011;37253;48.736;9.294;2023-05-07T10:09:09;14.57;;;2.35;;
51190;SDS011;37253;48.736;9.294;2023-05-07T10:11:11;20.23;;;2.05;;
51190;SDS011;37253;48.736;9.294;2023-05-07T10:13:11;19.20;;;1.55;;
51190;SDS011;37253;48.736;9.294;2023-05-07T10:15:12;18.83;;;1.90;;
51190;SDS011;37253;48.736;9.294;2023-05-07T10:17:12;12.73;;;2.20;;
51190;SDS011;37253;48.736;9.294;2023-05-07T10:19:13;16.60;;;2.10;;
51190;SDS011;37253;48.736;9.294;2023-05-07T10:21:16;10.68;;;1.50;;
51190;SDS011;37253;48.736;9.294;2023-05-07T10:25:23;22.10;;;2.35;;
51190;SDS011;37253;48.736;9.294;2023-05-07T10:27:26;11.77;;;1.70;;
51190;SDS011;37253;48.736;9.294;2023-05-07T10:33:44;12.95;;;1.95;;
51190;SDS011;37253;48.736;9.294;2023-05-07T10:35:45;15.63;;;1.95;;
51190;SDS011;37253;48.736;9.294;2023-05-07T10:37:46;15.95;;;1.60;;
51190;SDS011;37253;48.736;9.294;2023-05-07T10:39:48;9.43;;;1.50;;
51190;SDS011;37253;48.736;9.294;2023-05-07T10:41:48;20.98;;;2.00;;
51190;SDS011;37253;48.736;9.294;2023-05-07T10:43:49;13.38;;;1.75;;
51190;SDS011;37253;48.736;9.294;2023-05-07T10:48:16;13.00;;;1.58;;
51190;SDS011;37253;48.736;9.294;2023-05-07T10:52:17;13.63;;;1.70;;
51190;SDS011;37253;48.736;9.294;2023-05-07T10:54:24;13.88;;;1.90;;
51190;SDS011;37253;48.736;9.294;2023-05-07T10:56:24;8.18;;;1.35;;
51190;SDS011;37253;48.736;9.294;2023-05-07T10:58:26;5.70;;;1.40;;
51190;SDS011;37253;48.736;9.294;2023-05-07T11:03:04;13.20;;;1.48;;
51190;SDS011;37253;48.736;9.294;2023-05-07T11:05:19;13.02;;;1.55;;
51190;SDS011;37253;48.736;9.294;2023-05-07T11:07:24;9.13;;;1.40;;
51190;SDS011;37253;48.736;9.294;2023-05-07T11:09:30;9.82;;;2.40;;
51190;SDS011;37253;48.736;9.294;2023-05-07T11:11:51;11.80;;;1.40;;
51190;SDS011;37253;48.736;9.294;2023-05-07T11:13:51;9.02;;;1.45;;
51190;SDS011;37253;48.736;9.294;2023-05-07T11:15:52;13.95;;;1.60;;
51190;SDS011;37253;48.736;9.294;2023-05-07T11:17:55;7.18;;;2.25;;
51190;SDS011;37253;48.736;9.294;2023-05-07T11:19:57;11.27;;;1.80;;
51190;SDS011;37253;48.736;9.294;2023-05-07T11:21:57;11.25;;;1.80;;
51190;SDS011;37253;48.736;9.294;2023-05-07T11:23:58;9.73;;;2.05;;
51190;SDS011;37253;48.736;9.294;2023-05-07T11:26:02;10.88;;;1.85;;
51190;SDS011;37253;48.736;9.294;2023-05-07T11:28:04;8.43;;;1.40;;
51190;SDS011;37253;48.736;9.294;2023-05-07T11:30:06;8.35;;;1.83;;
51190;SDS011;37253;48.736;9.294;2023-05-07T11:32:07;7.90;;;2.40;;
51190;SDS011;37253;48.736;9.294;2023-05-07T11:34:08;11.23;;;1.70;;
51190;SDS011;37253;48.736;9.294;2023-05-07T11:36:08;11.02;;;1.55;;
51190;SDS011;37253;48.736;9.294;2023-05-07T11:38:09;14.27;;;1.70;;
51190;SDS011;37253;48.736;9.294;2023-05-07T11:40:09;8.38;;;1.90;;
51190;SDS011;37253;48.736;9.294;2023-05-07T11:42:29;6.93;;;1.80;;
51190;SDS011;37253;48.736;9.294;2023-05-07T11:44:40;8.70;;;1.70;;
51190;SDS011;37253;48.736;9.294;2023-05-07T11:46:44;11.15;;;1.80;;
51190;SDS011;37253;48.736;9.294;2023-05-07T11:48:45;8.65;;;1.60;;
51190;SDS011;37253;48.736;9.294;2023-05-07T11:50:52;13.10;;;1.90;;
51190;SDS011;37253;48.736;9.294;2023-05-07T11:52:53;6.90;;;1.42;;
51190;SDS011;37253;48.736;9.294;2023-05-07T11:54:54;10.13;;;1.60;;
51190;SDS011;37253;48.736;9.294;2023-05-07T11:56:55;13.60;;;1.80;;
51190;SDS011;37253;48.736;9.294;2023-05-07T11:58:56;7.60;;;1.67;;
51190;SDS011;37253;48.736;9.294;2023-05-07T12:00:56;7.57;;;1.60;;
51190;SDS011;37253;48.736;9.294;2023-05-07T12:02:56;8.40;;;1.75;;
51190;SDS011;37253;48.736;9.294;2023-05-07T12:05:03;12.88;;;1.55;;
51190;SDS011;37253;48.736;9.294;2023-05-07T12:07:04;8.20;;;1.77;;
51190;SDS011;37253;48.736;9.294;2023-05-07T12:09:04;9.23;;;1.45;;
51190;SDS011;37253;48.736;9.294;2023-05-07T12:11:07;10.13;;;1.83;;
51190;SDS011;37253;48.736;9.294;2023-05-07T12:13:16;9.68;;;1.85;;
51190;SDS011;37253;48.736;9.294;2023-05-07T12:15:17;8.68;;;1.55;;
51190;SDS011;37253;48.736;9.294;2023-05-07T12:17:17;10.77;;;2.25;;
51190;SDS011;37253;48.736;9.294;2023-05-07T12:19:18;6.65;;;1.60;;
51190;SDS011;37253;48.736;9.294;2023-05-07T12:21:18;10.38;;;1.90;;